LGL1113 EDDM-LIML
Flight info
| Callsign | LGL1113 |
|---|---|
| Flight time | 1h 2m |
| Altitude | 22000 |
| Route | MERSI4E MERSI Y100 ATMAX Z999 BEMKI L607 XEBIX Y740 NATAG DCT LORLO DCT ATPED DCT LUSIL |
| Aircraft | B38M/M-SDE1FGHILORVWXY/HB1 |
Departure
| Time | 2026-05-04 13:46 |
|---|---|
| Airport | Munich Airport (EDDM) |
Arrival
| Time | 2026-05-04 14:48 |
|---|---|
| Airport | Milano Linate Airport (LIML) |
| Time | Latitude | Longitude | Altitude | Speed | Heading |
|---|---|---|---|---|---|
| 2026-05-04 12:38 | 48.35588 | 11.79997 | 1488 ft | 0 kts | 263° |
| 2026-05-04 13:23 | 48.35591 | 11.80023 | 1488 ft | 4 kts | 253° |
| 2026-05-04 13:23 | 48.35600 | 11.80054 | 1478 ft | 4 kts | 229° |
| 2026-05-04 13:23 | 48.35618 | 11.80072 | 1488 ft | 4 kts | 185° |
| 2026-05-04 13:24 | 48.35625 | 11.80072 | 1488 ft | 1 kts | 174° |
| 2026-05-04 13:34 | 48.35613 | 11.80075 | 1478 ft | 4 kts | 168° |
| 2026-05-04 13:34 | 48.35573 | 11.80101 | 1475 ft | 9 kts | 156° |
| 2026-05-04 13:34 | 48.35509 | 11.80125 | 1488 ft | 10 kts | 168° |
| 2026-05-04 13:34 | 48.35436 | 11.80135 | 1488 ft | 11 kts | 174° |
| 2026-05-04 13:35 | 48.35364 | 11.80159 | 1488 ft | 11 kts | 170° |
| 2026-05-04 13:35 | 48.35204 | 11.80185 | 1482 ft | 12 kts | 173° |
| 2026-05-04 13:35 | 48.35154 | 11.80183 | 1477 ft | 5 kts | 208° |
| 2026-05-04 13:36 | 48.35139 | 11.80155 | 1481 ft | 2 kts | 252° |
| 2026-05-04 13:36 | 48.35134 | 11.80127 | 1480 ft | 4 kts | 255° |
| 2026-05-04 13:36 | 48.35130 | 11.80082 | 1480 ft | 5 kts | 262° |
| 2026-05-04 13:36 | 48.35124 | 11.80018 | 1484 ft | 7 kts | 262° |
| 2026-05-04 13:37 | 48.35116 | 11.79934 | 1478 ft | 9 kts | 262° |
| 2026-05-04 13:37 | 48.35110 | 11.79832 | 1484 ft | 10 kts | 266° |
| 2026-05-04 13:37 | 48.35102 | 11.79712 | 1488 ft | 13 kts | 263° |
| 2026-05-04 13:37 | 48.35086 | 11.79649 | 1480 ft | 1 kts | 210° |
| 2026-05-04 13:38 | 48.35039 | 11.79665 | 1481 ft | 14 kts | 168° |
| 2026-05-04 13:38 | 48.34898 | 11.79687 | 1486 ft | 19 kts | 173° |
| 2026-05-04 13:38 | 48.34799 | 11.79633 | 1476 ft | 15 kts | 248° |
| 2026-05-04 13:38 | 48.34786 | 11.79483 | 1483 ft | 15 kts | 263° |
| 2026-05-04 13:39 | 48.34772 | 11.79316 | 1485 ft | 17 kts | 263° |
| 2026-05-04 13:39 | 48.34759 | 11.79134 | 1483 ft | 18 kts | 263° |
| 2026-05-04 13:39 | 48.34744 | 11.78936 | 1488 ft | 20 kts | 263° |
| 2026-05-04 13:39 | 48.34728 | 11.78722 | 1481 ft | 21 kts | 263° |
| 2026-05-04 13:40 | 48.34711 | 11.78494 | 1483 ft | 23 kts | 263° |
| 2026-05-04 13:40 | 48.34691 | 11.78257 | 1478 ft | 24 kts | 262° |
| 2026-05-04 13:40 | 48.34672 | 11.78003 | 1488 ft | 24 kts | 263° |
| 2026-05-04 13:40 | 48.34652 | 11.77747 | 1481 ft | 26 kts | 263° |
| 2026-05-04 13:41 | 48.34631 | 11.77473 | 1488 ft | 27 kts | 263° |
| 2026-05-04 13:41 | 48.34609 | 11.77190 | 1481 ft | 28 kts | 263° |
| 2026-05-04 13:41 | 48.34587 | 11.76901 | 1483 ft | 29 kts | 263° |
| 2026-05-04 13:42 | 48.34543 | 11.76335 | 1484 ft | 23 kts | 262° |
| 2026-05-04 13:42 | 48.34522 | 11.76088 | 1488 ft | 24 kts | 263° |
| 2026-05-04 13:42 | 48.34503 | 11.75828 | 1480 ft | 26 kts | 262° |
| 2026-05-04 13:42 | 48.34483 | 11.75558 | 1482 ft | 26 kts | 264° |
| 2026-05-04 13:43 | 48.34465 | 11.75328 | 1480 ft | 15 kts | 263° |
| 2026-05-04 13:43 | 48.34454 | 11.75253 | 1480 ft | 9 kts | 239° |
| 2026-05-04 13:43 | 48.34409 | 11.75219 | 1488 ft | 7 kts | 184° |
| 2026-05-04 13:43 | 48.34351 | 11.75227 | 1477 ft | 11 kts | 173° |
| 2026-05-04 13:44 | 48.34256 | 11.75245 | 1481 ft | 16 kts | 173° |
| 2026-05-04 13:44 | 48.34144 | 11.75267 | 1479 ft | 17 kts | 165° |
| 2026-05-04 13:44 | 48.34092 | 11.75324 | 1483 ft | 6 kts | 104° |
| 2026-05-04 13:44 | 48.34090 | 11.75394 | 1486 ft | 7 kts | 84° |
| 2026-05-04 13:45 | 48.34102 | 11.75513 | 1478 ft | 23 kts | 83° |
| 2026-05-04 13:45 | 48.34145 | 11.76091 | 1488 ft | 86 kts | 83° |
| 2026-05-04 13:45 | 48.34234 | 11.77258 | 1482 ft | 137 kts | 83° |
| 2026-05-04 13:45 | 48.34367 | 11.78880 | 1539 ft | 170 kts | 83° |
| 2026-05-04 13:46 | 48.34489 | 11.80642 | 2075 ft | 171 kts | 84° |
| 2026-05-04 13:46 | 48.34605 | 11.82499 | 2496 ft | 183 kts | 84° |
| 2026-05-04 13:46 | 48.34713 | 11.84406 | 3169 ft | 179 kts | 84° |
| 2026-05-04 13:46 | 48.34866 | 11.86311 | 3696 ft | 191 kts | 82° |
| 2026-05-04 13:47 | 48.35034 | 11.88343 | 4228 ft | 201 kts | 82° |
| 2026-05-04 13:47 | 48.35216 | 11.90532 | 4639 ft | 221 kts | 83° |
| 2026-05-04 13:47 | 48.35397 | 11.92946 | 5008 ft | 243 kts | 88° |
| 2026-05-04 13:47 | 48.35024 | 11.95429 | 5657 ft | 246 kts | 120° |
| 2026-05-04 13:48 | 48.33896 | 11.97392 | 6266 ft | 253 kts | 140° |
| 2026-05-04 13:48 | 48.32524 | 11.99043 | 6390 ft | 252 kts | 141° |
| 2026-05-04 13:48 | 48.31148 | 12.00685 | 6565 ft | 254 kts | 141° |
| 2026-05-04 13:48 | 48.29679 | 12.02192 | 7181 ft | 263 kts | 156° |
| 2026-05-04 13:49 | 48.27830 | 12.02668 | 7643 ft | 279 kts | 181° |
| 2026-05-04 13:49 | 48.25875 | 12.02535 | 8366 ft | 282 kts | 180° |
| 2026-05-04 13:49 | 48.23901 | 12.02439 | 9103 ft | 285 kts | 180° |
| 2026-05-04 13:49 | 48.21910 | 12.02332 | 9863 ft | 288 kts | 181° |
| 2026-05-04 13:50 | 48.19904 | 12.02219 | 10618 ft | 289 kts | 181° |
| 2026-05-04 13:50 | 48.17892 | 12.02103 | 11412 ft | 289 kts | 182° |
| 2026-05-04 13:50 | 48.15878 | 12.01986 | 12197 ft | 290 kts | 183° |
| 2026-05-04 13:50 | 48.13858 | 12.01868 | 13028 ft | 291 kts | 184° |
| 2026-05-04 13:51 | 48.11818 | 12.01751 | 13773 ft | 295 kts | 184° |
| 2026-05-04 13:51 | 48.09775 | 12.01424 | 14500 ft | 297 kts | 198° |
| 2026-05-04 13:51 | 48.07968 | 11.99981 | 15254 ft | 297 kts | 221° |
| 2026-05-04 13:51 | 48.06698 | 11.97542 | 15947 ft | 302 kts | 243° |
| 2026-05-04 13:52 | 48.05482 | 11.91442 | 17305 ft | 310 kts | 253° |
| 2026-05-04 13:52 | 48.04933 | 11.88317 | 17982 ft | 312 kts | 254° |
| 2026-05-04 13:52 | 48.04387 | 11.85158 | 18637 ft | 315 kts | 254° |
| 2026-05-04 13:53 | 48.03850 | 11.82014 | 19216 ft | 318 kts | 254° |
| 2026-05-04 13:53 | 48.03296 | 11.78755 | 19819 ft | 321 kts | 255° |
| 2026-05-04 13:53 | 48.02751 | 11.75546 | 20380 ft | 324 kts | 255° |
| 2026-05-04 13:54 | 48.01632 | 11.68960 | 21476 ft | 330 kts | 255° |
| 2026-05-04 13:54 | 48.01150 | 11.65536 | 21767 ft | 336 kts | 264° |
| 2026-05-04 13:54 | 48.00860 | 11.58608 | 21950 ft | 334 kts | 264° |
| 2026-05-04 13:55 | 48.00699 | 11.55162 | 21963 ft | 333 kts | 264° |
| 2026-05-04 13:55 | 48.00378 | 11.48300 | 21972 ft | 333 kts | 264° |
| 2026-05-04 13:55 | 48.00215 | 11.44850 | 21965 ft | 333 kts | 264° |
| 2026-05-04 13:56 | 48.00051 | 11.41401 | 21974 ft | 333 kts | 264° |
| 2026-05-04 13:56 | 47.99886 | 11.37940 | 21984 ft | 334 kts | 264° |
| 2026-05-04 13:56 | 47.99553 | 11.31035 | 21961 ft | 334 kts | 264° |
| 2026-05-04 13:57 | 47.99384 | 11.27571 | 21971 ft | 334 kts | 264° |
| 2026-05-04 13:57 | 47.99214 | 11.24111 | 21976 ft | 335 kts | 264° |
| 2026-05-04 13:58 | 47.98699 | 11.13726 | 21973 ft | 334 kts | 264° |
| 2026-05-04 13:58 | 47.98351 | 11.06812 | 21975 ft | 334 kts | 264° |
| 2026-05-04 13:58 | 47.98083 | 11.03384 | 21959 ft | 332 kts | 255° |
| 2026-05-04 13:59 | 47.97472 | 11.00053 | 21978 ft | 332 kts | 253° |
| 2026-05-04 13:59 | 47.96875 | 10.96722 | 21969 ft | 332 kts | 253° |
| 2026-05-04 13:59 | 47.95681 | 10.90074 | 21975 ft | 332 kts | 253° |
| 2026-05-04 14:00 | 47.95081 | 10.86741 | 21983 ft | 332 kts | 253° |
| 2026-05-04 14:00 | 47.93884 | 10.80098 | 21988 ft | 331 kts | 253° |
| 2026-05-04 14:00 | 47.93447 | 10.77680 | 21985 ft | 331 kts | 253° |
| 2026-05-04 14:01 | 47.92642 | 10.74491 | 21967 ft | 328 kts | 237° |
| 2026-05-04 14:01 | 47.91369 | 10.71673 | 21992 ft | 329 kts | 236° |
| 2026-05-04 14:01 | 47.88830 | 10.65992 | 21994 ft | 330 kts | 235° |
| 2026-05-04 14:02 | 47.87546 | 10.63164 | 21987 ft | 330 kts | 235° |
| 2026-05-04 14:02 | 47.86257 | 10.60343 | 21986 ft | 330 kts | 235° |
| 2026-05-04 14:02 | 47.84966 | 10.57524 | 21988 ft | 329 kts | 235° |
| 2026-05-04 14:02 | 47.83676 | 10.54715 | 21986 ft | 329 kts | 235° |
| 2026-05-04 14:03 | 47.82385 | 10.51905 | 21985 ft | 329 kts | 235° |
| 2026-05-04 14:03 | 47.81092 | 10.49095 | 21987 ft | 329 kts | 235° |
| 2026-05-04 14:03 | 47.79801 | 10.46293 | 21984 ft | 329 kts | 235° |
| 2026-05-04 14:03 | 47.78508 | 10.43490 | 21986 ft | 329 kts | 234° |
| 2026-05-04 14:04 | 47.75900 | 10.37911 | 21970 ft | 327 kts | 229° |
| 2026-05-04 14:04 | 47.74173 | 10.35761 | 21962 ft | 326 kts | 208° |
| 2026-05-04 14:04 | 47.72037 | 10.34653 | 21988 ft | 329 kts | 193° |
| 2026-05-04 14:05 | 47.67525 | 10.33388 | 21978 ft | 330 kts | 192° |
| 2026-05-04 14:05 | 47.65265 | 10.32811 | 21978 ft | 330 kts | 191° |
| 2026-05-04 14:05 | 47.62995 | 10.32249 | 21985 ft | 330 kts | 191° |
| 2026-05-04 14:06 | 47.60751 | 10.31706 | 21976 ft | 331 kts | 191° |
| 2026-05-04 14:06 | 47.58442 | 10.31178 | 21983 ft | 332 kts | 187° |
| 2026-05-04 14:06 | 47.56145 | 10.31452 | 21962 ft | 335 kts | 166° |
| 2026-05-04 14:06 | 47.54049 | 10.32896 | 21999 ft | 342 kts | 149° |
| 2026-05-04 14:07 | 47.52093 | 10.34922 | 21984 ft | 344 kts | 148° |
| 2026-05-04 14:07 | 47.50144 | 10.36987 | 21992 ft | 345 kts | 147° |
| 2026-05-04 14:07 | 47.48202 | 10.39072 | 21990 ft | 345 kts | 147° |
| 2026-05-04 14:07 | 47.46264 | 10.41170 | 22000 ft | 344 kts | 147° |
| 2026-05-04 14:08 | 47.44335 | 10.43267 | 22010 ft | 345 kts | 147° |
| 2026-05-04 14:08 | 47.42403 | 10.45372 | 22023 ft | 345 kts | 147° |
| 2026-05-04 14:08 | 47.40399 | 10.47270 | 22005 ft | 340 kts | 160° |
| 2026-05-04 14:08 | 47.38133 | 10.48071 | 22027 ft | 334 kts | 176° |
| 2026-05-04 14:09 | 47.33485 | 10.48860 | 22024 ft | 336 kts | 176° |
| 2026-05-04 14:09 | 47.31154 | 10.49225 | 22042 ft | 336 kts | 176° |
| 2026-05-04 14:10 | 47.26497 | 10.49914 | 22035 ft | 335 kts | 177° |
| 2026-05-04 14:10 | 47.24173 | 10.50248 | 22064 ft | 336 kts | 177° |
| 2026-05-04 14:10 | 47.21842 | 10.50580 | 22064 ft | 337 kts | 177° |
| 2026-05-04 14:10 | 47.19510 | 10.50913 | 22035 ft | 337 kts | 177° |
| 2026-05-04 14:11 | 47.17174 | 10.51246 | 22046 ft | 337 kts | 177° |
| 2026-05-04 14:11 | 47.12504 | 10.51909 | 22057 ft | 337 kts | 177° |
| 2026-05-04 14:11 | 47.10168 | 10.52240 | 22056 ft | 338 kts | 177° |
| 2026-05-04 14:12 | 47.07827 | 10.52572 | 22075 ft | 338 kts | 177° |
| 2026-05-04 14:12 | 47.05494 | 10.52992 | 22062 ft | 339 kts | 169° |
| 2026-05-04 14:12 | 47.00960 | 10.55030 | 22061 ft | 341 kts | 166° |
| 2026-05-04 14:13 | 46.98692 | 10.56056 | 22085 ft | 341 kts | 166° |
| 2026-05-04 14:13 | 46.96426 | 10.57082 | 22085 ft | 341 kts | 165° |
| 2026-05-04 14:13 | 46.94149 | 10.58110 | 22092 ft | 342 kts | 165° |
| 2026-05-04 14:13 | 46.91879 | 10.59134 | 22080 ft | 342 kts | 166° |
| 2026-05-04 14:14 | 46.89604 | 10.60161 | 22096 ft | 342 kts | 165° |
| 2026-05-04 14:14 | 46.85053 | 10.62211 | 22087 ft | 342 kts | 166° |
| 2026-05-04 14:14 | 46.82781 | 10.63234 | 22099 ft | 342 kts | 166° |
| 2026-05-04 14:15 | 46.78229 | 10.65281 | 22107 ft | 342 kts | 166° |
| 2026-05-04 14:15 | 46.73669 | 10.67236 | 22091 ft | 340 kts | 174° |
| 2026-05-04 14:16 | 46.69112 | 10.66268 | 22104 ft | 334 kts | 197° |
| 2026-05-04 14:16 | 46.66870 | 10.65357 | 22100 ft | 335 kts | 198° |
| 2026-05-04 14:17 | 46.62426 | 10.63471 | 22111 ft | 335 kts | 198° |
| 2026-05-04 14:17 | 46.60191 | 10.62502 | 22107 ft | 335 kts | 198° |
| 2026-05-04 14:17 | 46.55726 | 10.60551 | 22115 ft | 335 kts | 198° |
| 2026-05-04 14:18 | 46.53491 | 10.59574 | 22125 ft | 336 kts | 198° |
| 2026-05-04 14:18 | 46.49023 | 10.57619 | 22104 ft | 335 kts | 198° |
| 2026-05-04 14:19 | 46.44555 | 10.55669 | 22140 ft | 335 kts | 198° |
| 2026-05-04 14:19 | 46.42320 | 10.54696 | 22106 ft | 335 kts | 198° |
| 2026-05-04 14:19 | 46.40090 | 10.53723 | 22105 ft | 335 kts | 198° |
| 2026-05-04 14:19 | 46.37862 | 10.52753 | 22111 ft | 334 kts | 198° |
| 2026-05-04 14:20 | 46.35635 | 10.51784 | 22110 ft | 334 kts | 198° |
| 2026-05-04 14:20 | 46.33404 | 10.50814 | 22109 ft | 334 kts | 198° |
| 2026-05-04 14:20 | 46.31178 | 10.49848 | 22118 ft | 334 kts | 198° |
| 2026-05-04 14:21 | 46.26714 | 10.47912 | 22139 ft | 334 kts | 198° |
| 2026-05-04 14:21 | 46.24489 | 10.46949 | 22148 ft | 335 kts | 198° |
| 2026-05-04 14:21 | 46.22258 | 10.45983 | 22098 ft | 334 kts | 198° |
| 2026-05-04 14:21 | 46.20032 | 10.45021 | 22152 ft | 335 kts | 198° |
| 2026-05-04 14:22 | 46.17809 | 10.44018 | 22140 ft | 334 kts | 204° |
| 2026-05-04 14:22 | 46.15868 | 10.42261 | 22131 ft | 329 kts | 224° |
| 2026-05-04 14:22 | 46.14473 | 10.39656 | 22148 ft | 330 kts | 240° |
| 2026-05-04 14:22 | 46.13348 | 10.36766 | 22113 ft | 331 kts | 240° |
| 2026-05-04 14:23 | 46.11179 | 10.30913 | 22136 ft | 331 kts | 242° |
| 2026-05-04 14:23 | 46.10116 | 10.27967 | 22111 ft | 331 kts | 242° |
| 2026-05-04 14:23 | 46.09058 | 10.25012 | 22115 ft | 332 kts | 242° |
| 2026-05-04 14:24 | 46.08004 | 10.22054 | 22103 ft | 332 kts | 242° |
| 2026-05-04 14:24 | 46.06952 | 10.19100 | 22099 ft | 332 kts | 242° |
| 2026-05-04 14:24 | 46.05900 | 10.16144 | 22094 ft | 331 kts | 242° |
| 2026-05-04 14:24 | 46.04807 | 10.13222 | 22088 ft | 331 kts | 235° |
| 2026-05-04 14:25 | 46.03201 | 10.10891 | 22079 ft | 330 kts | 215° |
| 2026-05-04 14:25 | 45.99321 | 10.07310 | 22073 ft | 332 kts | 213° |
| 2026-05-04 14:25 | 45.97370 | 10.05534 | 22071 ft | 332 kts | 213° |
| 2026-05-04 14:26 | 45.95414 | 10.03774 | 22090 ft | 332 kts | 213° |
| 2026-05-04 14:26 | 45.93449 | 10.02020 | 22084 ft | 332 kts | 213° |
| 2026-05-04 14:26 | 45.91485 | 10.00274 | 22082 ft | 332 kts | 213° |
| 2026-05-04 14:26 | 45.89518 | 9.98529 | 22081 ft | 332 kts | 213° |
| 2026-05-04 14:27 | 45.87550 | 9.96786 | 22084 ft | 332 kts | 212° |
| 2026-05-04 14:27 | 45.85582 | 9.95045 | 22076 ft | 332 kts | 213° |
| 2026-05-04 14:27 | 45.83614 | 9.93306 | 22072 ft | 332 kts | 212° |
| 2026-05-04 14:27 | 45.81645 | 9.91567 | 22084 ft | 332 kts | 212° |
| 2026-05-04 14:28 | 45.79701 | 9.89852 | 22072 ft | 332 kts | 212° |
| 2026-05-04 14:28 | 45.78375 | 9.88682 | 22074 ft | 332 kts | 212° |
| 2026-05-04 14:28 | 45.75768 | 9.86384 | 22064 ft | 332 kts | 212° |
| 2026-05-04 14:28 | 45.74439 | 9.85214 | 22076 ft | 332 kts | 212° |
| 2026-05-04 14:29 | 45.70512 | 9.81759 | 21674 ft | 330 kts | 212° |
| 2026-05-04 14:29 | 45.66640 | 9.78359 | 21000 ft | 324 kts | 212° |
| 2026-05-04 14:30 | 45.64743 | 9.76626 | 20639 ft | 322 kts | 216° |
| 2026-05-04 14:30 | 45.62938 | 9.74817 | 20270 ft | 321 kts | 215° |
| 2026-05-04 14:30 | 45.59279 | 9.71189 | 19592 ft | 315 kts | 215° |
| 2026-05-04 14:31 | 45.57486 | 9.69420 | 19264 ft | 313 kts | 214° |
| 2026-05-04 14:31 | 45.53934 | 9.65902 | 18531 ft | 309 kts | 215° |
| 2026-05-04 14:32 | 45.50431 | 9.62421 | 17886 ft | 304 kts | 214° |
| 2026-05-04 14:32 | 45.48704 | 9.60709 | 17562 ft | 301 kts | 214° |
| 2026-05-04 14:32 | 45.46993 | 9.59014 | 17226 ft | 299 kts | 214° |
| 2026-05-04 14:32 | 45.45295 | 9.57332 | 16917 ft | 296 kts | 214° |
| 2026-05-04 14:33 | 45.43606 | 9.55661 | 16585 ft | 294 kts | 214° |
| 2026-05-04 14:33 | 45.41930 | 9.54004 | 16271 ft | 292 kts | 214° |
| 2026-05-04 14:33 | 45.40268 | 9.52362 | 15950 ft | 290 kts | 214° |
| 2026-05-04 14:33 | 45.38617 | 9.50732 | 15635 ft | 287 kts | 214° |
| 2026-05-04 14:34 | 45.36982 | 9.49119 | 15348 ft | 284 kts | 214° |
| 2026-05-04 14:34 | 45.35385 | 9.47545 | 15220 ft | 275 kts | 214° |
| 2026-05-04 14:34 | 45.33837 | 9.46019 | 15076 ft | 267 kts | 214° |
| 2026-05-04 14:34 | 45.32345 | 9.44564 | 14926 ft | 259 kts | 211° |
| 2026-05-04 14:35 | 45.30674 | 9.43706 | 14628 ft | 260 kts | 186° |
| 2026-05-04 14:35 | 45.28853 | 9.43747 | 14335 ft | 264 kts | 179° |
| 2026-05-04 14:35 | 45.27039 | 9.43874 | 14173 ft | 257 kts | 178° |
| 2026-05-04 14:35 | 45.25282 | 9.44022 | 14027 ft | 249 kts | 178° |
| 2026-05-04 14:36 | 45.23578 | 9.44180 | 13865 ft | 242 kts | 177° |
| 2026-05-04 14:36 | 45.21896 | 9.44345 | 13597 ft | 245 kts | 177° |
| 2026-05-04 14:36 | 45.20191 | 9.44518 | 13277 ft | 247 kts | 177° |
| 2026-05-04 14:36 | 45.18468 | 9.44698 | 12965 ft | 249 kts | 177° |
| 2026-05-04 14:37 | 45.16730 | 9.44878 | 12555 ft | 252 kts | 176° |
| 2026-05-04 14:37 | 45.14979 | 9.45064 | 12266 ft | 251 kts | 176° |
| 2026-05-04 14:37 | 45.13238 | 9.45248 | 11958 ft | 250 kts | 176° |
| 2026-05-04 14:37 | 45.11484 | 9.45434 | 11660 ft | 249 kts | 176° |
| 2026-05-04 14:38 | 45.09779 | 9.45614 | 11352 ft | 248 kts | 176° |
| 2026-05-04 14:38 | 45.08042 | 9.45798 | 11052 ft | 247 kts | 176° |
| 2026-05-04 14:38 | 45.06348 | 9.45978 | 10732 ft | 247 kts | 176° |
| 2026-05-04 14:38 | 45.04639 | 9.46159 | 10431 ft | 246 kts | 176° |
| 2026-05-04 14:39 | 45.02939 | 9.46339 | 10135 ft | 244 kts | 176° |
| 2026-05-04 14:39 | 45.01244 | 9.46421 | 9827 ft | 243 kts | 188° |
| 2026-05-04 14:39 | 44.99697 | 9.45533 | 9457 ft | 243 kts | 218° |
| 2026-05-04 14:40 | 44.98385 | 9.41327 | 8820 ft | 242 kts | 264° |
| 2026-05-04 14:40 | 44.98240 | 9.38979 | 8715 ft | 234 kts | 263° |
| 2026-05-04 14:40 | 44.98163 | 9.36719 | 8508 ft | 229 kts | 276° |
| 2026-05-04 14:40 | 44.98708 | 9.34611 | 8063 ft | 236 kts | 306° |
| 2026-05-04 14:41 | 44.99930 | 9.33110 | 7689 ft | 235 kts | 334° |
| 2026-05-04 14:41 | 45.01495 | 9.32481 | 7393 ft | 234 kts | 353° |
| 2026-05-04 14:41 | 45.04712 | 9.32031 | 6958 ft | 236 kts | 355° |
| 2026-05-04 14:42 | 45.08046 | 9.31626 | 6496 ft | 243 kts | 355° |
| 2026-05-04 14:42 | 45.09735 | 9.31435 | 6202 ft | 244 kts | 355° |
| 2026-05-04 14:42 | 45.11431 | 9.31253 | 5897 ft | 244 kts | 355° |
| 2026-05-04 14:43 | 45.13116 | 9.31073 | 5613 ft | 243 kts | 355° |
| 2026-05-04 14:43 | 45.14798 | 9.30891 | 5341 ft | 241 kts | 355° |
| 2026-05-04 14:43 | 45.16477 | 9.30712 | 5035 ft | 242 kts | 355° |
| 2026-05-04 14:43 | 45.18148 | 9.30533 | 4796 ft | 239 kts | 355° |
| 2026-05-04 14:44 | 45.19788 | 9.30358 | 4647 ft | 232 kts | 355° |
| 2026-05-04 14:44 | 45.21368 | 9.30189 | 4520 ft | 226 kts | 355° |
| 2026-05-04 14:44 | 45.22961 | 9.30019 | 4247 ft | 232 kts | 355° |
| 2026-05-04 14:44 | 45.24573 | 9.29847 | 3971 ft | 233 kts | 355° |
| 2026-05-04 14:45 | 45.26202 | 9.29672 | 3700 ft | 234 kts | 356° |
| 2026-05-04 14:45 | 45.27816 | 9.29499 | 3442 ft | 231 kts | 356° |
| 2026-05-04 14:45 | 45.29413 | 9.29328 | 3104 ft | 229 kts | 355° |
| 2026-05-04 14:45 | 45.30985 | 9.29159 | 2783 ft | 225 kts | 355° |
| 2026-05-04 14:46 | 45.32537 | 9.28993 | 2488 ft | 221 kts | 355° |
| 2026-05-04 14:46 | 45.34058 | 9.28830 | 2196 ft | 218 kts | 355° |
| 2026-05-04 14:46 | 45.35566 | 9.28668 | 1902 ft | 215 kts | 355° |
| 2026-05-04 14:46 | 45.37000 | 9.28514 | 1636 ft | 197 kts | 354° |
| 2026-05-04 14:47 | 45.38295 | 9.28374 | 1379 ft | 177 kts | 354° |
| 2026-05-04 14:47 | 45.39460 | 9.28250 | 1159 ft | 159 kts | 354° |
| 2026-05-04 14:47 | 45.40508 | 9.28133 | 945 ft | 148 kts | 353° |
| 2026-05-04 14:47 | 45.41530 | 9.28010 | 731 ft | 144 kts | 355° |
| 2026-05-04 14:48 | 45.42521 | 9.27913 | 536 ft | 140 kts | 355° |
| 2026-05-04 14:48 | 45.43470 | 9.27819 | 393 ft | 134 kts | 356° |
| 2026-05-04 14:48 | 45.44327 | 9.27725 | 361 ft | 104 kts | 356° |
| 2026-05-04 14:48 | 45.44822 | 9.27674 | 364 ft | 47 kts | 355° |
| 2026-05-04 14:49 | 45.45107 | 9.27642 | 364 ft | 42 kts | 355° |
| 2026-05-04 14:49 | 45.45273 | 9.27648 | 361 ft | 18 kts | 18° |
| 2026-05-04 14:49 | 45.45390 | 9.27719 | 363 ft | 19 kts | 28° |
| 2026-05-04 14:49 | 45.45449 | 9.27781 | 368 ft | 0 kts | 56° |
| 2026-05-04 14:50 | 45.45450 | 9.27782 | 368 ft | 1 kts | 56° |
| 2026-05-04 14:51 | 45.45457 | 9.27796 | 364 ft | 3 kts | 47° |
| 2026-05-04 14:51 | 45.45490 | 9.27813 | 368 ft | 7 kts | 6° |
| 2026-05-04 14:51 | 45.45555 | 9.27815 | 365 ft | 12 kts | 1° |
| 2026-05-04 14:51 | 45.45654 | 9.27818 | 365 ft | 17 kts | 1° |
| 2026-05-04 14:52 | 45.45788 | 9.27821 | 365 ft | 20 kts | 1° |
| 2026-05-04 14:52 | 45.45862 | 9.27823 | 365 ft | 8 kts | 1° |
| 2026-05-04 14:52 | 45.45907 | 9.27847 | 365 ft | 4 kts | 56° |
| 2026-05-04 14:52 | 45.45909 | 9.27864 | 365 ft | 2 kts | 90° |
| 2026-05-04 14:53 | 45.45909 | 9.27926 | 371 ft | 10 kts | 87° |
| 2026-05-04 14:53 | 45.45944 | 9.27966 | 365 ft | 4 kts | 3° |
| 2026-05-04 14:53 | 45.45953 | 9.27967 | 365 ft | 3 kts | 2° |
| 2026-05-04 14:53 | 45.45969 | 9.27967 | 365 ft | 2 kts | 1° |
| 2026-05-04 14:54 | 45.45971 | 9.27967 | 365 ft | 0 kts | 1° |